sensor_id;sensor_type;location;lat;lon;timestamp;P1;durP1;ratioP1;P2;durP2;ratioP2
14592;SDS011;7383;52.354;9.756;2023-05-24T00:00:29;4.18;;;2.47;;
14592;SDS011;7383;52.354;9.756;2023-05-24T00:02:56;2.78;;;2.08;;
14592;SDS011;7383;52.354;9.756;2023-05-24T00:05:23;5.13;;;2.40;;
14592;SDS011;7383;52.354;9.756;2023-05-24T00:07:49;4.65;;;2.35;;
14592;SDS011;7383;52.354;9.756;2023-05-24T00:10:17;4.28;;;2.30;;
14592;SDS011;7383;52.354;9.756;2023-05-24T00:12:43;4.90;;;2.50;;
14592;SDS011;7383;52.354;9.756;2023-05-24T00:15:10;5.78;;;2.50;;
14592;SDS011;7383;52.354;9.756;2023-05-24T00:17:36;3.03;;;2.30;;
14592;SDS011;7383;52.354;9.756;2023-05-24T00:20:06;4.78;;;2.45;;
14592;SDS011;7383;52.354;9.756;2023-05-24T00:22:34;4.00;;;2.20;;
14592;SDS011;7383;52.354;9.756;2023-05-24T00:25:01;3.60;;;2.35;;
14592;SDS011;7383;52.354;9.756;2023-05-24T00:27:30;3.78;;;2.35;;
14592;SDS011;7383;52.354;9.756;2023-05-24T00:29:56;5.75;;;2.75;;
14592;SDS011;7383;52.354;9.756;2023-05-24T00:32:23;5.05;;;2.70;;
14592;SDS011;7383;52.354;9.756;2023-05-24T00:34:49;6.43;;;2.85;;
14592;SDS011;7383;52.354;9.756;2023-05-24T00:37:16;8.90;;;3.60;;
14592;SDS011;7383;52.354;9.756;2023-05-24T00:39:42;8.15;;;3.53;;
14592;SDS011;7383;52.354;9.756;2023-05-24T00:42:09;9.07;;;3.42;;
14592;SDS011;7383;52.354;9.756;2023-05-24T00:44:36;8.68;;;3.58;;
14592;SDS011;7383;52.354;9.756;2023-05-24T00:47:03;7.05;;;3.13;;
14592;SDS011;7383;52.354;9.756;2023-05-24T00:49:30;5.07;;;3.00;;
14592;SDS011;7383;52.354;9.756;2023-05-24T00:51:56;3.75;;;2.85;;
14592;SDS011;7383;52.354;9.756;2023-05-24T00:54:24;5.72;;;3.17;;
14592;SDS011;7383;52.354;9.756;2023-05-24T00:56:51;6.88;;;3.00;;
14592;SDS011;7383;52.354;9.756;2023-05-24T00:59:18;6.18;;;2.83;;
14592;SDS011;7383;52.354;9.756;2023-05-24T01:01:46;6.07;;;3.20;;
14592;SDS011;7383;52.354;9.756;2023-05-24T01:04:13;5.90;;;2.80;;
14592;SDS011;7383;52.354;9.756;2023-05-24T01:06:44;6.43;;;4.25;;
14592;SDS011;7383;52.354;9.756;2023-05-24T01:09:24;6.90;;;3.20;;
14592;SDS011;7383;52.354;9.756;2023-05-24T01:11:59;5.53;;;3.13;;
14592;SDS011;7383;52.354;9.756;2023-05-24T01:14:38;5.55;;;3.03;;
14592;SDS011;7383;52.354;9.756;2023-05-24T01:17:17;5.10;;;3.25;;
14592;SDS011;7383;52.354;9.756;2023-05-24T01:19:53;5.00;;;2.78;;
14592;SDS011;7383;52.354;9.756;2023-05-24T01:22:27;7.10;;;3.38;;
14592;SDS011;7383;52.354;9.756;2023-05-24T01:25:15;3.67;;;2.42;;
14592;SDS011;7383;52.354;9.756;2023-05-24T01:27:48;6.10;;;2.83;;
14592;SDS011;7383;52.354;9.756;2023-05-24T01:30:15;5.07;;;2.78;;
14592;SDS011;7383;52.354;9.756;2023-05-24T01:32:43;6.70;;;2.70;;
14592;SDS011;7383;52.354;9.756;2023-05-24T01:35:09;4.65;;;2.55;;
14592;SDS011;7383;52.354;9.756;2023-05-24T01:37:36;5.70;;;2.88;;
14592;SDS011;7383;52.354;9.756;2023-05-24T01:40:02;4.78;;;2.70;;
14592;SDS011;7383;52.354;9.756;2023-05-24T01:42:31;4.97;;;2.30;;
14592;SDS011;7383;52.354;9.756;2023-05-24T01:45:07;5.60;;;2.83;;
14592;SDS011;7383;52.354;9.756;2023-05-24T01:47:44;5.47;;;2.60;;
14592;SDS011;7383;52.354;9.756;2023-05-24T01:50:19;4.05;;;2.55;;
14592;SDS011;7383;52.354;9.756;2023-05-24T01:52:50;6.97;;;2.90;;
14592;SDS011;7383;52.354;9.756;2023-05-24T01:55:17;5.55;;;2.50;;
14592;SDS011;7383;52.354;9.756;2023-05-24T01:57:44;6.13;;;3.03;;
14592;SDS011;7383;52.354;9.756;2023-05-24T02:00:15;5.97;;;2.55;;
14592;SDS011;7383;52.354;9.756;2023-05-24T02:02:44;5.13;;;2.63;;
14592;SDS011;7383;52.354;9.756;2023-05-24T02:05:10;5.90;;;3.33;;
14592;SDS011;7383;52.354;9.756;2023-05-24T02:07:37;7.10;;;2.70;;
14592;SDS011;7383;52.354;9.756;2023-05-24T02:10:05;4.97;;;2.63;;
14592;SDS011;7383;52.354;9.756;2023-05-24T02:12:32;5.07;;;2.60;;
14592;SDS011;7383;52.354;9.756;2023-05-24T02:14:59;5.30;;;2.75;;
14592;SDS011;7383;52.354;9.756;2023-05-24T02:17:26;4.47;;;2.70;;
14592;SDS011;7383;52.354;9.756;2023-05-24T02:19:56;5.72;;;2.50;;
14592;SDS011;7383;52.354;9.756;2023-05-24T02:22:23;4.53;;;2.80;;
14592;SDS011;7383;52.354;9.756;2023-05-24T02:24:49;5.55;;;2.90;;
14592;SDS011;7383;52.354;9.756;2023-05-24T02:27:16;6.47;;;2.90;;
14592;SDS011;7383;52.354;9.756;2023-05-24T02:29:42;7.00;;;3.05;;
14592;SDS011;7383;52.354;9.756;2023-05-24T02:32:09;4.43;;;2.58;;
14592;SDS011;7383;52.354;9.756;2023-05-24T02:37:09;5.57;;;2.80;;
14592;SDS011;7383;52.354;9.756;2023-05-24T02:39:38;6.13;;;2.90;;
14592;SDS011;7383;52.354;9.756;2023-05-24T02:42:05;6.13;;;3.00;;
14592;SDS011;7383;52.354;9.756;2023-05-24T02:44:32;4.65;;;2.97;;
14592;SDS011;7383;52.354;9.756;2023-05-24T02:46:59;6.65;;;3.13;;
14592;SDS011;7383;52.354;9.756;2023-05-24T02:49:25;7.93;;;3.25;;
14592;SDS011;7383;52.354;9.756;2023-05-24T02:51:51;5.95;;;3.15;;
14592;SDS011;7383;52.354;9.756;2023-05-24T02:54:19;7.18;;;3.22;;
14592;SDS011;7383;52.354;9.756;2023-05-24T02:56:45;6.45;;;3.03;;
14592;SDS011;7383;52.354;9.756;2023-05-24T02:59:12;6.97;;;3.35;;
14592;SDS011;7383;52.354;9.756;2023-05-24T03:01:38;5.72;;;3.40;;
14592;SDS011;7383;52.354;9.756;2023-05-24T03:04:05;8.43;;;3.55;;
14592;SDS011;7383;52.354;9.756;2023-05-24T03:06:31;10.40;;;3.42;;
14592;SDS011;7383;52.354;9.756;2023-05-24T03:08:57;8.32;;;3.50;;
14592;SDS011;7383;52.354;9.756;2023-05-24T03:11:25;9.93;;;3.67;;
14592;SDS011;7383;52.354;9.756;2023-05-24T03:13:51;7.30;;;3.50;;
14592;SDS011;7383;52.354;9.756;2023-05-24T03:16:18;7.45;;;3.60;;
14592;SDS011;7383;52.354;9.756;2023-05-24T03:18:45;7.32;;;3.20;;
14592;SDS011;7383;52.354;9.756;2023-05-24T03:21:14;7.60;;;3.80;;
14592;SDS011;7383;52.354;9.756;2023-05-24T03:23:40;7.93;;;3.33;;
14592;SDS011;7383;52.354;9.756;2023-05-24T03:26:07;8.45;;;3.75;;
14592;SDS011;7383;52.354;9.756;2023-05-24T03:28:35;6.15;;;3.20;;
14592;SDS011;7383;52.354;9.756;2023-05-24T03:31:01;9.98;;;3.75;;
14592;SDS011;7383;52.354;9.756;2023-05-24T03:33:27;6.00;;;3.65;;
14592;SDS011;7383;52.354;9.756;2023-05-24T03:35:54;7.28;;;3.15;;
14592;SDS011;7383;52.354;9.756;2023-05-24T03:38:20;5.75;;;3.00;;
14592;SDS011;7383;52.354;9.756;2023-05-24T03:40:47;6.45;;;3.50;;
14592;SDS011;7383;52.354;9.756;2023-05-24T03:43:13;6.30;;;3.22;;
14592;SDS011;7383;52.354;9.756;2023-05-24T03:45:42;6.85;;;3.40;;
14592;SDS011;7383;52.354;9.756;2023-05-24T03:48:08;7.47;;;3.72;;
14592;SDS011;7383;52.354;9.756;2023-05-24T03:50:35;14.18;;;6.25;;
14592;SDS011;7383;52.354;9.756;2023-05-24T03:53:01;8.07;;;3.85;;
14592;SDS011;7383;52.354;9.756;2023-05-24T03:55:27;5.97;;;3.67;;
14592;SDS011;7383;52.354;9.756;2023-05-24T03:57:54;5.50;;;3.53;;
14592;SDS011;7383;52.354;9.756;2023-05-24T04:00:20;8.75;;;3.30;;
14592;SDS011;7383;52.354;9.756;2023-05-24T04:02:48;8.30;;;4.30;;
14592;SDS011;7383;52.354;9.756;2023-05-24T04:05:15;5.55;;;3.03;;
14592;SDS011;7383;52.354;9.756;2023-05-24T04:07:41;6.72;;;3.72;;
14592;SDS011;7383;52.354;9.756;2023-05-24T04:10:10;7.15;;;3.78;;
14592;SDS011;7383;52.354;9.756;2023-05-24T04:12:36;11.27;;;4.53;;
14592;SDS011;7383;52.354;9.756;2023-05-24T04:15:04;9.38;;;4.38;;
14592;SDS011;7383;52.354;9.756;2023-05-24T04:17:31;5.20;;;3.35;;
14592;SDS011;7383;52.354;9.756;2023-05-24T04:20:00;7.13;;;3.35;;
14592;SDS011;7383;52.354;9.756;2023-05-24T04:22:28;7.03;;;4.07;;
14592;SDS011;7383;52.354;9.756;2023-05-24T04:24:54;7.15;;;3.90;;
14592;SDS011;7383;52.354;9.756;2023-05-24T04:27:21;9.98;;;4.30;;
14592;SDS011;7383;52.354;9.756;2023-05-24T04:29:50;7.97;;;3.72;;
14592;SDS011;7383;52.354;9.756;2023-05-24T04:32:17;8.75;;;3.90;;
14592;SDS011;7383;52.354;9.756;2023-05-24T04:34:43;8.80;;;3.53;;
14592;SDS011;7383;52.354;9.756;2023-05-24T04:37:12;6.90;;;3.83;;
14592;SDS011;7383;52.354;9.756;2023-05-24T04:39:41;7.32;;;3.50;;
14592;SDS011;7383;52.354;9.756;2023-05-24T04:42:07;7.82;;;3.67;;
14592;SDS011;7383;52.354;9.756;2023-05-24T04:44:34;7.03;;;3.88;;
14592;SDS011;7383;52.354;9.756;2023-05-24T04:47:00;9.90;;;3.70;;
14592;SDS011;7383;52.354;9.756;2023-05-24T04:49:27;6.47;;;3.35;;
14592;SDS011;7383;52.354;9.756;2023-05-24T04:51:54;5.93;;;3.33;;
14592;SDS011;7383;52.354;9.756;2023-05-24T04:54:22;7.30;;;3.38;;
14592;SDS011;7383;52.354;9.756;2023-05-24T04:56:49;11.38;;;4.07;;
14592;SDS011;7383;52.354;9.756;2023-05-24T04:59:16;8.75;;;4.00;;
14592;SDS011;7383;52.354;9.756;2023-05-24T05:01:42;7.93;;;2.97;;
14592;SDS011;7383;52.354;9.756;2023-05-24T05:04:10;6.45;;;3.38;;
14592;SDS011;7383;52.354;9.756;2023-05-24T05:06:36;5.35;;;3.15;;
14592;SDS011;7383;52.354;9.756;2023-05-24T05:09:04;8.80;;;3.65;;
14592;SDS011;7383;52.354;9.756;2023-05-24T05:11:34;7.05;;;3.65;;
14592;SDS011;7383;52.354;9.756;2023-05-24T05:14:01;6.60;;;3.40;;
14592;SDS011;7383;52.354;9.756;2023-05-24T05:16:27;8.50;;;3.13;;
14592;SDS011;7383;52.354;9.756;2023-05-24T05:18:54;7.82;;;3.35;;
14592;SDS011;7383;52.354;9.756;2023-05-24T05:21:20;6.13;;;3.45;;
14592;SDS011;7383;52.354;9.756;2023-05-24T05:23:46;7.95;;;3.83;;
14592;SDS011;7383;52.354;9.756;2023-05-24T05:26:13;7.13;;;3.22;;
14592;SDS011;7383;52.354;9.756;2023-05-24T05:28:41;8.52;;;3.90;;
14592;SDS011;7383;52.354;9.756;2023-05-24T06:40:53;9.23;;;4.57;;
14592;SDS011;7383;52.354;9.756;2023-05-24T06:43:19;8.93;;;4.30;;
14592;SDS011;7383;52.354;9.756;2023-05-24T06:45:46;10.57;;;4.55;;
14592;SDS011;7383;52.354;9.756;2023-05-24T06:48:12;7.00;;;3.90;;
14592;SDS011;7383;52.354;9.756;2023-05-24T06:50:39;6.47;;;3.65;;
14592;SDS011;7383;52.354;9.756;2023-05-24T06:53:09;8.82;;;3.88;;
14592;SDS011;7383;52.354;9.756;2023-05-24T06:55:36;7.80;;;4.65;;
14592;SDS011;7383;52.354;9.756;2023-05-24T06:58:03;7.13;;;3.63;;
14592;SDS011;7383;52.354;9.756;2023-05-24T07:00:31;8.82;;;5.05;;
14592;SDS011;7383;52.354;9.756;2023-05-24T07:02:58;10.70;;;5.05;;
14592;SDS011;7383;52.354;9.756;2023-05-24T07:05:24;7.65;;;4.32;;
14592;SDS011;7383;52.354;9.756;2023-05-24T07:07:51;6.75;;;3.85;;
14592;SDS011;7383;52.354;9.756;2023-05-24T07:10:17;7.30;;;3.22;;
14592;SDS011;7383;52.354;9.756;2023-05-24T07:12:43;6.70;;;3.63;;
14592;SDS011;7383;52.354;9.756;2023-05-24T07:15:11;6.85;;;3.50;;
14592;SDS011;7383;52.354;9.756;2023-05-24T07:17:38;7.45;;;3.42;;
14592;SDS011;7383;52.354;9.756;2023-05-24T07:20:05;5.68;;;3.50;;
14592;SDS011;7383;52.354;9.756;2023-05-24T07:22:35;6.40;;;3.75;;
14592;SDS011;7383;52.354;9.756;2023-05-24T07:25:01;7.40;;;4.50;;
14592;SDS011;7383;52.354;9.756;2023-05-24T07:27:28;4.82;;;3.40;;
14592;SDS011;7383;52.354;9.756;2023-05-24T07:29:55;5.40;;;3.30;;
14592;SDS011;7383;52.354;9.756;2023-05-24T07:32:24;6.93;;;3.55;;
14592;SDS011;7383;52.354;9.756;2023-05-24T07:34:50;7.95;;;3.63;;
14592;SDS011;7383;52.354;9.756;2023-05-24T07:37:17;6.30;;;2.92;;
14592;SDS011;7383;52.354;9.756;2023-05-24T07:39:44;3.83;;;2.70;;
14592;SDS011;7383;52.354;9.756;2023-05-24T07:42:10;6.10;;;3.60;;
14592;SDS011;7383;52.354;9.756;2023-05-24T07:44:37;5.50;;;3.38;;
14592;SDS011;7383;52.354;9.756;2023-05-24T07:47:04;5.65;;;3.25;;
14592;SDS011;7383;52.354;9.756;2023-05-24T07:49:32;6.50;;;3.08;;
14592;SDS011;7383;52.354;9.756;2023-05-24T07:51:59;4.45;;;3.25;;
14592;SDS011;7383;52.354;9.756;2023-05-24T07:54:25;6.07;;;3.60;;
14592;SDS011;7383;52.354;9.756;2023-05-24T07:56:51;5.15;;;3.50;;
14592;SDS011;7383;52.354;9.756;2023-05-24T07:59:18;8.10;;;3.60;;
14592;SDS011;7383;52.354;9.756;2023-05-24T08:01:45;4.85;;;3.25;;
14592;SDS011;7383;52.354;9.756;2023-05-24T08:04:12;6.18;;;3.58;;
14592;SDS011;7383;52.354;9.756;2023-05-24T08:06:40;6.88;;;3.58;;
14592;SDS011;7383;52.354;9.756;2023-05-24T08:09:06;6.40;;;3.65;;
14592;SDS011;7383;52.354;9.756;2023-05-24T08:11:33;7.97;;;3.92;;
14592;SDS011;7383;52.354;9.756;2023-05-24T08:13:59;5.03;;;3.70;;
14592;SDS011;7383;52.354;9.756;2023-05-24T08:16:26;6.05;;;3.78;;
14592;SDS011;7383;52.354;9.756;2023-05-24T08:18:52;6.20;;;3.55;;
14592;SDS011;7383;52.354;9.756;2023-05-24T08:21:19;5.60;;;3.10;;
14592;SDS011;7383;52.354;9.756;2023-05-24T08:23:46;6.53;;;3.92;;
14592;SDS011;7383;52.354;9.756;2023-05-24T08:26:13;5.55;;;3.50;;
14592;SDS011;7383;52.354;9.756;2023-05-24T08:28:43;4.95;;;3.28;;
14592;SDS011;7383;52.354;9.756;2023-05-24T08:31:09;6.47;;;3.40;;
14592;SDS011;7383;52.354;9.756;2023-05-24T08:33:36;6.88;;;3.45;;
14592;SDS011;7383;52.354;9.756;2023-05-24T08:36:02;4.82;;;2.85;;
14592;SDS011;7383;52.354;9.756;2023-05-24T08:38:29;5.55;;;3.13;;
14592;SDS011;7383;52.354;9.756;2023-05-24T08:40:57;5.90;;;3.20;;
14592;SDS011;7383;52.354;9.756;2023-05-24T08:43:23;4.35;;;2.92;;
14592;SDS011;7383;52.354;9.756;2023-05-24T08:45:51;7.18;;;3.28;;
14592;SDS011;7383;52.354;9.756;2023-05-24T08:48:19;7.15;;;3.78;;
14592;SDS011;7383;52.354;9.756;2023-05-24T08:50:46;5.40;;;3.17;;
14592;SDS011;7383;52.354;9.756;2023-05-24T08:53:13;5.47;;;3.35;;
14592;SDS011;7383;52.354;9.756;2023-05-24T08:55:40;6.80;;;3.65;;
14592;SDS011;7383;52.354;9.756;2023-05-24T08:58:09;8.20;;;3.88;;
14592;SDS011;7383;52.354;9.756;2023-05-24T09:00:36;6.82;;;3.88;;
14592;SDS011;7383;52.354;9.756;2023-05-24T09:03:02;4.43;;;3.20;;
14592;SDS011;7383;52.354;9.756;2023-05-24T09:05:30;5.28;;;3.50;;
14592;SDS011;7383;52.354;9.756;2023-05-24T09:07:58;5.70;;;3.53;;
14592;SDS011;7383;52.354;9.756;2023-05-24T09:10:25;6.10;;;3.20;;
14592;SDS011;7383;52.354;9.756;2023-05-24T09:12:54;6.30;;;3.90;;
14592;SDS011;7383;52.354;9.756;2023-05-24T09:15:24;6.10;;;3.30;;
14592;SDS011;7383;52.354;9.756;2023-05-24T09:17:50;5.82;;;3.80;;
14592;SDS011;7383;52.354;9.756;2023-05-24T09:20:17;4.80;;;3.50;;
14592;SDS011;7383;52.354;9.756;2023-05-24T09:22:45;6.25;;;4.13;;
14592;SDS011;7383;52.354;9.756;2023-05-24T09:25:16;5.47;;;3.13;;
14592;SDS011;7383;52.354;9.756;2023-05-24T09:27:47;6.28;;;3.40;;
14592;SDS011;7383;52.354;9.756;2023-05-24T09:30:15;6.30;;;3.58;;
14592;SDS011;7383;52.354;9.756;2023-05-24T09:32:45;6.50;;;4.00;;
14592;SDS011;7383;52.354;9.756;2023-05-24T09:35:20;5.53;;;3.67;;
14592;SDS011;7383;52.354;9.756;2023-05-24T09:37:46;7.18;;;3.83;;
14592;SDS011;7383;52.354;9.756;2023-05-24T09:40:16;6.38;;;3.75;;
14592;SDS011;7383;52.354;9.756;2023-05-24T09:42:44;5.07;;;3.83;;
14592;SDS011;7383;52.354;9.756;2023-05-24T09:45:10;5.03;;;3.40;;
14592;SDS011;7383;52.354;9.756;2023-05-24T09:47:38;6.93;;;3.47;;
14592;SDS011;7383;52.354;9.756;2023-05-24T09:50:11;6.00;;;3.60;;
14592;SDS011;7383;52.354;9.756;2023-05-24T09:52:38;5.88;;;4.00;;
14592;SDS011;7383;52.354;9.756;2023-05-24T09:55:12;9.70;;;4.47;;
14592;SDS011;7383;52.354;9.756;2023-05-24T09:57:39;6.22;;;4.05;;
14592;SDS011;7383;52.354;9.756;2023-05-24T10:00:06;10.88;;;4.90;;
14592;SDS011;7383;52.354;9.756;2023-05-24T10:02:41;8.30;;;4.25;;
14592;SDS011;7383;52.354;9.756;2023-05-24T10:05:10;7.68;;;4.63;;
14592;SDS011;7383;52.354;9.756;2023-05-24T10:07:36;8.32;;;4.63;;
14592;SDS011;7383;52.354;9.756;2023-05-24T10:10:04;8.55;;;4.70;;
14592;SDS011;7383;52.354;9.756;2023-05-24T10:12:33;6.70;;;4.50;;
14592;SDS011;7383;52.354;9.756;2023-05-24T10:15:00;8.05;;;4.47;;
14592;SDS011;7383;52.354;9.756;2023-05-24T10:17:28;6.80;;;4.38;;
14592;SDS011;7383;52.354;9.756;2023-05-24T10:19:55;7.00;;;4.13;;
14592;SDS011;7383;52.354;9.756;2023-05-24T10:22:23;6.20;;;4.03;;
14592;SDS011;7383;52.354;9.756;2023-05-24T10:24:52;6.00;;;3.80;;
14592;SDS011;7383;52.354;9.756;2023-05-24T10:27:23;8.80;;;4.75;;
14592;SDS011;7383;52.354;9.756;2023-05-24T10:29:58;6.40;;;3.90;;
14592;SDS011;7383;52.354;9.756;2023-05-24T10:32:30;6.78;;;4.05;;
14592;SDS011;7383;52.354;9.756;2023-05-24T10:34:59;6.70;;;4.00;;
14592;SDS011;7383;52.354;9.756;2023-05-24T10:37:29;6.95;;;4.43;;
14592;SDS011;7383;52.354;9.756;2023-05-24T10:39:57;7.03;;;4.28;;
14592;SDS011;7383;52.354;9.756;2023-05-24T10:42:25;8.13;;;4.30;;
14592;SDS011;7383;52.354;9.756;2023-05-24T10:44:51;7.10;;;4.32;;
14592;SDS011;7383;52.354;9.756;2023-05-24T10:47:19;7.78;;;4.53;;
14592;SDS011;7383;52.354;9.756;2023-05-24T10:49:46;5.88;;;3.80;;
14592;SDS011;7383;52.354;9.756;2023-05-24T10:52:15;5.70;;;3.85;;
14592;SDS011;7383;52.354;9.756;2023-05-24T10:54:50;6.57;;;4.18;;
14592;SDS011;7383;52.354;9.756;2023-05-24T10:57:27;7.15;;;4.15;;
14592;SDS011;7383;52.354;9.756;2023-05-24T10:59:55;6.32;;;4.63;;
14592;SDS011;7383;52.354;9.756;2023-05-24T11:02:22;6.63;;;3.85;;
14592;SDS011;7383;52.354;9.756;2023-05-24T11:04:53;7.80;;;4.72;;
14592;SDS011;7383;52.354;9.756;2023-05-24T11:07:20;6.72;;;4.18;;
14592;SDS011;7383;52.354;9.756;2023-05-24T11:09:47;4.93;;;4.15;;
14592;SDS011;7383;52.354;9.756;2023-05-24T11:12:21;7.55;;;3.90;;
14592;SDS011;7383;52.354;9.756;2023-05-24T11:14:48;5.63;;;3.85;;
14592;SDS011;7383;52.354;9.756;2023-05-24T11:17:17;4.85;;;3.85;;
14592;SDS011;7383;52.354;9.756;2023-05-24T11:19:45;5.90;;;3.55;;
14592;SDS011;7383;52.354;9.756;2023-05-24T11:22:13;6.80;;;3.63;;
14592;SDS011;7383;52.354;9.756;2023-05-24T11:24:40;6.57;;;3.90;;
14592;SDS011;7383;52.354;9.756;2023-05-24T11:27:09;6.75;;;3.90;;
14592;SDS011;7383;52.354;9.756;2023-05-24T11:29:41;4.15;;;3.67;;
14592;SDS011;7383;52.354;9.756;2023-05-24T11:32:13;4.60;;;3.80;;
14592;SDS011;7383;52.354;9.756;2023-05-24T11:34:40;5.57;;;3.95;;
14592;SDS011;7383;52.354;9.756;2023-05-24T11:37:09;7.65;;;4.18;;
14592;SDS011;7383;52.354;9.756;2023-05-24T11:39:36;6.90;;;4.10;;
14592;SDS011;7383;52.354;9.756;2023-05-24T11:42:03;7.72;;;4.28;;
14592;SDS011;7383;52.354;9.756;2023-05-24T11:44:31;6.90;;;4.30;;
14592;SDS011;7383;52.354;9.756;2023-05-24T11:47:00;6.97;;;4.43;;
14592;SDS011;7383;52.354;9.756;2023-05-24T11:49:27;8.63;;;4.50;;
14592;SDS011;7383;52.354;9.756;2023-05-24T11:51:54;8.00;;;4.20;;
14592;SDS011;7383;52.354;9.756;2023-05-24T11:54:21;7.10;;;4.32;;
14592;SDS011;7383;52.354;9.756;2023-05-24T11:56:48;8.25;;;4.95;;
14592;SDS011;7383;52.354;9.756;2023-05-24T11:59:16;6.60;;;4.03;;
14592;SDS011;7383;52.354;9.756;2023-05-24T12:01:44;8.00;;;5.22;;
14592;SDS011;7383;52.354;9.756;2023-05-24T12:04:11;19.40;;;6.78;;
14592;SDS011;7383;52.354;9.756;2023-05-24T12:06:38;8.95;;;5.07;;
14592;SDS011;7383;52.354;9.756;2023-05-24T12:09:06;8.30;;;5.25;;
14592;SDS011;7383;52.354;9.756;2023-05-24T12:11:36;7.30;;;3.75;;
14592;SDS011;7383;52.354;9.756;2023-05-24T12:14:04;7.60;;;4.95;;
14592;SDS011;7383;52.354;9.756;2023-05-24T12:16:31;5.32;;;4.00;;
14592;SDS011;7383;52.354;9.756;2023-05-24T12:18:58;8.60;;;5.50;;
14592;SDS011;7383;52.354;9.756;2023-05-24T12:21:30;5.55;;;4.15;;
14592;SDS011;7383;52.354;9.756;2023-05-24T12:24:03;6.63;;;4.00;;
14592;SDS011;7383;52.354;9.756;2023-05-24T12:26:33;6.70;;;3.92;;
14592;SDS011;7383;52.354;9.756;2023-05-24T12:29:01;6.90;;;4.00;;
14592;SDS011;7383;52.354;9.756;2023-05-24T12:31:28;5.38;;;4.00;;
14592;SDS011;7383;52.354;9.756;2023-05-24T12:33:55;6.05;;;3.95;;
14592;SDS011;7383;52.354;9.756;2023-05-24T12:36:21;6.72;;;4.38;;
14592;SDS011;7383;52.354;9.756;2023-05-24T12:38:49;6.38;;;3.67;;
14592;SDS011;7383;52.354;9.756;2023-05-24T12:41:16;5.13;;;4.05;;
14592;SDS011;7383;52.354;9.756;2023-05-24T12:43:43;4.18;;;3.53;;
14592;SDS011;7383;52.354;9.756;2023-05-24T12:46:10;4.57;;;3.58;;
14592;SDS011;7383;52.354;9.756;2023-05-24T12:48:38;5.47;;;3.60;;
14592;SDS011;7383;52.354;9.756;2023-05-24T12:51:04;3.97;;;3.35;;
14592;SDS011;7383;52.354;9.756;2023-05-24T12:53:32;4.53;;;3.67;;
14592;SDS011;7383;52.354;9.756;2023-05-24T12:56:00;5.65;;;3.88;;
14592;SDS011;7383;52.354;9.756;2023-05-24T12:58:26;4.82;;;3.45;;
14592;SDS011;7383;52.354;9.756;2023-05-24T13:00:53;4.95;;;3.25;;
14592;SDS011;7383;52.354;9.756;2023-05-24T13:03:20;4.45;;;3.05;;
14592;SDS011;7383;52.354;9.756;2023-05-24T13:05:46;5.55;;;3.55;;
14592;SDS011;7383;52.354;9.756;2023-05-24T13:08:13;4.75;;;3.80;;
14592;SDS011;7383;52.354;9.756;2023-05-24T13:10:40;5.80;;;4.35;;
14592;SDS011;7383;52.354;9.756;2023-05-24T13:13:07;4.35;;;3.63;;
14592;SDS011;7383;52.354;9.756;2023-05-24T13:15:34;3.33;;;3.03;;
14592;SDS011;7383;52.354;9.756;2023-05-24T13:18:02;4.00;;;3.15;;
14592;SDS011;7383;52.354;9.756;2023-05-24T13:20:28;4.25;;;3.03;;
14592;SDS011;7383;52.354;9.756;2023-05-24T13:22:55;4.50;;;3.33;;
14592;SDS011;7383;52.354;9.756;2023-05-24T13:25:21;4.18;;;3.35;;
14592;SDS011;7383;52.354;9.756;2023-05-24T13:27:48;4.63;;;3.60;;
14592;SDS011;7383;52.354;9.756;2023-05-24T13:30:16;5.18;;;3.70;;
14592;SDS011;7383;52.354;9.756;2023-05-24T13:32:43;5.28;;;3.72;;
14592;SDS011;7383;52.354;9.756;2023-05-24T13:35:09;3.90;;;3.08;;
14592;SDS011;7383;52.354;9.756;2023-05-24T13:37:36;5.50;;;3.40;;
14592;SDS011;7383;52.354;9.756;2023-05-24T13:40:03;3.47;;;2.95;;
14592;SDS011;7383;52.354;9.756;2023-05-24T13:42:30;3.65;;;3.20;;
14592;SDS011;7383;52.354;9.756;2023-05-24T13:44:56;5.53;;;3.35;;
14592;SDS011;7383;52.354;9.756;2023-05-24T13:47:25;4.70;;;3.42;;
14592;SDS011;7383;52.354;9.756;2023-05-24T13:49:52;4.10;;;3.70;;
14592;SDS011;7383;52.354;9.756;2023-05-24T13:52:20;3.53;;;3.22;;
14592;SDS011;7383;52.354;9.756;2023-05-24T13:54:47;4.97;;;3.63;;
14592;SDS011;7383;52.354;9.756;2023-05-24T13:57:15;5.78;;;3.92;;
14592;SDS011;7383;52.354;9.756;2023-05-24T13:59:41;4.15;;;3.40;;
14592;SDS011;7383;52.354;9.756;2023-05-24T14:02:08;3.40;;;3.05;;
14592;SDS011;7383;52.354;9.756;2023-05-24T14:04:36;5.15;;;3.60;;
14592;SDS011;7383;52.354;9.756;2023-05-24T14:07:02;4.25;;;2.90;;
14592;SDS011;7383;52.354;9.756;2023-05-24T14:09:31;3.67;;;3.28;;
14592;SDS011;7383;52.354;9.756;2023-05-24T14:11:58;4.20;;;3.40;;
14592;SDS011;7383;52.354;9.756;2023-05-24T14:14:26;4.95;;;3.70;;
14592;SDS011;7383;52.354;9.756;2023-05-24T14:16:52;4.03;;;3.20;;
14592;SDS011;7383;52.354;9.756;2023-05-24T14:19:19;4.75;;;3.70;;
14592;SDS011;7383;52.354;9.756;2023-05-24T14:21:47;4.75;;;3.40;;
14592;SDS011;7383;52.354;9.756;2023-05-24T14:24:13;3.50;;;3.05;;
14592;SDS011;7383;52.354;9.756;2023-05-24T14:26:40;4.25;;;3.65;;
14592;SDS011;7383;52.354;9.756;2023-05-24T14:29:07;4.00;;;2.95;;
14592;SDS011;7383;52.354;9.756;2023-05-24T14:31:33;3.58;;;3.20;;
14592;SDS011;7383;52.354;9.756;2023-05-24T14:34:06;4.30;;;3.22;;
14592;SDS011;7383;52.354;9.756;2023-05-24T14:36:32;3.40;;;3.08;;
14592;SDS011;7383;52.354;9.756;2023-05-24T14:39:03;3.42;;;2.80;;
14592;SDS011;7383;52.354;9.756;2023-05-24T14:41:30;4.57;;;3.08;;
14592;SDS011;7383;52.354;9.756;2023-05-24T14:43:57;3.60;;;2.85;;
14592;SDS011;7383;52.354;9.756;2023-05-24T14:46:24;3.75;;;3.08;;
14592;SDS011;7383;52.354;9.756;2023-05-24T14:48:51;3.25;;;2.78;;
14592;SDS011;7383;52.354;9.756;2023-05-24T14:51:17;4.68;;;3.17;;
14592;SDS011;7383;52.354;9.756;2023-05-24T14:53:44;3.92;;;2.78;;
14592;SDS011;7383;52.354;9.756;2023-05-24T14:56:12;6.28;;;3.28;;
14592;SDS011;7383;52.354;9.756;2023-05-24T14:58:38;3.03;;;2.70;;
14592;SDS011;7383;52.354;9.756;2023-05-24T15:01:05;3.20;;;2.95;;
14592;SDS011;7383;52.354;9.756;2023-05-24T15:03:32;3.90;;;3.00;;
14592;SDS011;7383;52.354;9.756;2023-05-24T15:05:58;5.55;;;3.08;;
14592;SDS011;7383;52.354;9.756;2023-05-24T15:08:25;3.80;;;2.80;;
14592;SDS011;7383;52.354;9.756;2023-05-24T15:10:51;5.55;;;3.38;;
14592;SDS011;7383;52.354;9.756;2023-05-24T15:13:19;5.50;;;3.40;;
14592;SDS011;7383;52.354;9.756;2023-05-24T15:15:47;5.05;;;3.70;;
14592;SDS011;7383;52.354;9.756;2023-05-24T15:18:13;6.05;;;3.97;;
14592;SDS011;7383;52.354;9.756;2023-05-24T15:20:40;4.03;;;3.45;;
14592;SDS011;7383;52.354;9.756;2023-05-24T15:23:06;3.70;;;3.40;;
14592;SDS011;7383;52.354;9.756;2023-05-24T15:25:34;5.05;;;3.65;;
14592;SDS011;7383;52.354;9.756;2023-05-24T15:28:01;6.30;;;4.05;;
14592;SDS011;7383;52.354;9.756;2023-05-24T15:30:29;4.57;;;3.50;;
14592;SDS011;7383;52.354;9.756;2023-05-24T15:32:55;4.50;;;3.50;;
14592;SDS011;7383;52.354;9.756;2023-05-24T15:35:21;4.97;;;3.58;;
14592;SDS011;7383;52.354;9.756;2023-05-24T15:37:48;6.07;;;3.83;;
14592;SDS011;7383;52.354;9.756;2023-05-24T15:40:15;4.10;;;3.53;;
14592;SDS011;7383;52.354;9.756;2023-05-24T15:42:42;5.10;;;3.50;;
14592;SDS011;7383;52.354;9.756;2023-05-24T15:45:09;5.07;;;3.53;;
14592;SDS011;7383;52.354;9.756;2023-05-24T15:47:38;5.43;;;3.90;;
14592;SDS011;7383;52.354;9.756;2023-05-24T15:50:05;5.13;;;3.53;;
14592;SDS011;7383;52.354;9.756;2023-05-24T15:52:32;5.32;;;3.47;;
14592;SDS011;7383;52.354;9.756;2023-05-24T15:55:00;4.72;;;3.67;;
14592;SDS011;7383;52.354;9.756;2023-05-24T15:57:27;5.68;;;3.80;;
14592;SDS011;7383;52.354;9.756;2023-05-24T15:59:54;5.32;;;3.80;;
14592;SDS011;7383;52.354;9.756;2023-05-24T16:02:20;5.22;;;3.72;;
14592;SDS011;7383;52.354;9.756;2023-05-24T16:04:48;5.78;;;3.72;;
14592;SDS011;7383;52.354;9.756;2023-05-24T16:07:15;5.50;;;3.60;;
14592;SDS011;7383;52.354;9.756;2023-05-24T16:09:42;4.32;;;3.22;;
14592;SDS011;7383;52.354;9.756;2023-05-24T16:12:10;3.45;;;3.15;;
14592;SDS011;7383;52.354;9.756;2023-05-24T16:14:36;4.65;;;3.75;;